Clearwater, British Columbia

Past 24 Hour Conditions

Date / Time
(PDT)
Conditions Temp
(°F)
Humidity
(%)
Dew Point
(°F)
Wind
(mph)
Pressure
(inches)
Visibility
(miles)
21 April 2015
4:00 N/A 41 73 33 NNW 3 29.8 N/A
3:00 N/A 42 75 34 calm 29.8 N/A
2:00 N/A 43 72 35 calm 29.8 N/A
1:00 N/A 46 64 34 calm 29.8 N/A
00:00 N/A 46 66 35 NNE 2 29.8 N/A
20 April 2015
23:00 N/A 50 55 34 NNW 3 29.7 N/A
22:00 N/A 53 50 35 calm 29.7 N/A
21:00 N/A 55 49 36 calm 29.7 N/A
20:00 N/A 60 40 36 WNW 3 29.7 N/A
19:00 N/A 67 30 35 WNW 4 29.7 N/A
18:00 N/A 74 20 31 W 3 29.7 N/A
17:00 N/A 75   17 27 W 5 29.7 N/A
16:00 N/A 75   18 28 calm 29.7 N/A
15:00 N/A 72 19 28 WSW 3 29.8 N/A
14:00 N/A 69 22 28 NE 4 29.8 N/A
13:00 N/A 66 21 24 SSE 2 29.9 N/A
12:00 N/A 62 25 26 SE 5 29.9 N/A
11:00 N/A 57 29 25 E 2 29.9 N/A
10:00 N/A 52 38 28 SSW 2 29.9 N/A
9:00 N/A 47 51 30 E 3 30.0 N/A
8:00 N/A 41 61 29 NE 3 30.0 N/A
7:00 N/A 36 77 30 calm 30.0 N/A
6:00 N/A 33   83 28 NNE 2 30.0 N/A
5:00 N/A 36 75 29 N 4 30.0 N/A
4:00 N/A 37 72 29 NNW 4 30.0 N/A
N/A Not available
↑ Highest temperature
↓ Lowest temperature

If you require additional historical weather information, please visit Climate Data Online.

What we are doing

Date modified: